createdAt,value
2019-01-08T00:00:14.267Z,0.00
2019-01-08T00:01:14.179Z,0.00
2019-01-08T00:02:14.104Z,0.00
2019-01-08T00:03:14.004Z,0.00
2019-01-08T00:04:13.929Z,0.00
2019-01-08T00:05:13.841Z,0.00
2019-01-08T00:06:13.755Z,0.00
2019-01-08T00:07:13.667Z,0.00
2019-01-08T00:08:13.580Z,0.00
2019-01-08T00:09:13.505Z,0.00
2019-01-08T00:10:13.406Z,0.00
2019-01-08T00:11:13.318Z,0.00
2019-01-08T00:12:13.230Z,0.00
2019-01-08T00:13:13.156Z,0.00
2019-01-08T00:14:13.069Z,0.00
2019-01-08T00:15:12.981Z,0.00
2019-01-08T00:16:12.907Z,0.00
2019-01-08T00:17:12.806Z,0.00
2019-01-08T00:18:12.718Z,0.00
2019-01-08T00:19:12.632Z,0.00
2019-01-08T00:20:12.543Z,0.00
2019-01-08T00:21:12.469Z,0.00
2019-01-08T00:22:12.370Z,0.00
2019-01-08T00:23:12.306Z,0.00
2019-01-08T00:24:12.206Z,0.00
2019-01-08T00:25:12.118Z,0.00
2019-01-08T00:26:12.032Z,0.00
2019-01-08T00:27:11.946Z,0.00
2019-01-08T00:28:11.857Z,0.00
2019-01-08T00:29:11.769Z,0.00
2019-01-08T00:30:11.682Z,0.00
2019-01-08T00:31:11.908Z,0.00
2019-01-08T00:32:11.519Z,0.00
2019-01-08T00:33:11.432Z,0.00
2019-01-08T00:34:11.345Z,0.00
2019-01-08T00:35:11.260Z,0.00
2019-01-08T00:36:11.171Z,0.00
2019-01-08T00:37:11.083Z,0.00
2019-01-08T00:38:11.005Z,0.00
2019-01-08T00:39:10.910Z,0.00
2019-01-08T00:40:10.833Z,0.00
2019-01-08T00:41:10.745Z,0.00
2019-01-08T00:42:10.659Z,0.00
2019-01-08T00:43:10.571Z,0.00
2019-01-08T00:44:10.485Z,0.00
2019-01-08T00:45:10.396Z,0.00
2019-01-08T00:46:10.309Z,0.00
2019-01-08T00:47:10.220Z,0.00
2019-01-08T00:48:10.137Z,0.00
2019-01-08T00:49:10.060Z,0.00
2019-01-08T00:50:09.984Z,0.00
2019-01-08T00:51:09.885Z,0.00
2019-01-08T00:52:09.796Z,0.00
2019-01-08T00:53:09.710Z,0.00
2019-01-08T00:54:09.622Z,0.00
2019-01-08T00:55:09.534Z,0.00
2019-01-08T00:56:09.449Z,0.00
2019-01-08T00:57:09.373Z,0.00
2019-01-08T00:58:09.285Z,0.00
2019-01-08T00:59:09.198Z,0.00
2019-01-08T01:00:09.113Z,0.00
2019-01-08T01:01:09.024Z,0.00
2019-01-08T01:02:08.937Z,0.00
2019-01-08T01:03:08.848Z,0.00
2019-01-08T01:04:08.760Z,0.00
2019-01-08T01:05:08.674Z,0.00
2019-01-08T01:06:08.611Z,0.00
2019-01-08T01:07:08.511Z,0.00
2019-01-08T01:08:08.422Z,0.00
2019-01-08T01:09:08.337Z,0.00
2019-01-08T01:10:08.248Z,0.00
2019-01-08T01:11:08.161Z,0.00
2019-01-08T01:12:08.074Z,0.00
2019-01-08T01:13:07.987Z,0.00
2019-01-08T01:14:07.899Z,0.00
2019-01-08T01:15:07.824Z,0.00
2019-01-08T01:16:07.738Z,0.00
2019-01-08T01:17:07.729Z,0.00
2019-01-08T01:18:07.562Z,0.00
2019-01-08T01:19:07.477Z,0.00
2019-01-08T01:20:07.388Z,0.00
2019-01-08T01:21:07.300Z,0.00
2019-01-08T01:22:07.243Z,0.00
2019-01-08T01:23:07.125Z,0.00
2019-01-08T01:24:07.059Z,0.00
2019-01-08T01:25:06.963Z,0.00
2019-01-08T01:26:06.875Z,0.00
2019-01-08T01:27:06.788Z,0.00
2019-01-08T01:28:06.700Z,0.00
2019-01-08T01:29:06.613Z,0.00
2019-01-08T01:30:06.526Z,0.00
2019-01-08T01:31:06.439Z,0.00
2019-01-08T01:32:06.363Z,0.00
2019-01-08T01:33:06.275Z,0.00
2019-01-08T01:34:06.194Z,0.00
2019-01-08T01:35:06.101Z,0.00
2019-01-08T01:36:06.014Z,0.00
2019-01-08T01:37:05.926Z,0.00
2019-01-08T01:38:05.840Z,0.00
2019-01-08T01:39:05.754Z,0.00
2019-01-08T01:40:05.677Z,0.00
2019-01-08T01:41:05.894Z,0.00
2019-01-08T01:42:05.502Z,0.00
2019-01-08T01:43:05.415Z,0.00
2019-01-08T01:44:05.327Z,0.00
2019-01-08T01:45:05.241Z,0.00
2019-01-08T01:46:05.152Z,0.00
2019-01-08T01:47:05.066Z,0.00
2019-01-08T01:48:04.991Z,0.00
2019-01-08T01:49:04.902Z,0.00
2019-01-08T01:50:04.816Z,0.00
2019-01-08T01:51:04.728Z,0.00
2019-01-08T01:52:04.642Z,0.00
2019-01-08T01:53:04.553Z,0.00
2019-01-08T01:54:04.467Z,0.00
2019-01-08T01:55:04.380Z,0.00
2019-01-08T01:56:04.291Z,0.00
2019-01-08T01:57:04.217Z,0.00
2019-01-08T01:58:04.128Z,0.00
2019-01-08T01:59:08.305Z,0.00
2019-01-08T02:00:03.954Z,0.00
2019-01-08T02:01:03.871Z,0.00
2019-01-08T02:02:03.791Z,0.00
2019-01-08T02:03:03.692Z,0.00
2019-01-08T02:04:03.605Z,0.00
2019-01-08T02:05:03.530Z,0.00
2019-01-08T02:06:03.442Z,0.00
2019-01-08T02:07:03.355Z,0.00
2019-01-08T02:08:03.271Z,0.00
2019-01-08T02:09:03.179Z,0.00
2019-01-08T02:10:03.095Z,0.00
2019-01-08T02:11:03.070Z,0.00
2019-01-08T02:12:02.919Z,0.00
2019-01-08T02:13:02.842Z,0.00
2019-01-08T02:14:02.754Z,0.00
2019-01-08T02:15:02.676Z,0.00
2019-01-08T02:16:02.580Z,0.00
2019-01-08T02:17:02.494Z,0.00
2019-01-08T02:18:02.406Z,0.00
2019-01-08T02:19:02.319Z,0.00
2019-01-08T02:20:02.232Z,0.00
2019-01-08T02:21:02.234Z,0.00
2019-01-08T02:22:02.069Z,0.00
2019-01-08T02:23:01.981Z,0.00
2019-01-08T02:24:01.894Z,0.00
2019-01-08T02:25:01.807Z,0.00
2019-01-08T02:26:01.719Z,0.00
2019-01-08T02:27:01.632Z,0.00
2019-01-08T02:28:01.557Z,0.00
2019-01-08T02:29:01.471Z,0.00
2019-01-08T02:30:01.391Z,0.00
2019-01-08T02:31:01.296Z,0.00
2019-01-08T02:32:01.208Z,0.00
2019-01-08T02:33:01.157Z,0.00
2019-01-08T02:34:01.034Z,0.00
2019-01-08T02:35:00.946Z,0.00
2019-01-08T02:36:00.870Z,0.00
2019-01-08T02:37:00.798Z,0.00
2019-01-08T02:38:00.696Z,0.00
2019-01-08T02:39:00.608Z,0.00
2019-01-08T02:40:00.520Z,0.00
2019-01-08T02:41:00.436Z,0.00
2019-01-08T02:42:00.374Z,0.00
2019-01-08T02:43:00.260Z,0.00
2019-01-08T02:44:00.254Z,0.00
2019-01-08T02:45:00.244Z,0.00
2019-01-08T02:46:00.514Z,0.00
2019-01-08T02:46:59.922Z,0.00
2019-01-08T02:47:59.834Z,0.00
2019-01-08T02:48:59.748Z,0.00
2019-01-08T02:49:59.662Z,0.00
2019-01-08T02:50:59.585Z,0.00
2019-01-08T02:51:59.497Z,0.00
2019-01-08T02:52:59.409Z,0.00
2019-01-08T02:53:59.323Z,0.00
2019-01-08T02:54:59.235Z,0.00
2019-01-08T02:55:59.148Z,0.00
2019-01-08T02:56:59.072Z,0.00
2019-01-08T02:57:58.984Z,0.00
2019-01-08T02:58:58.900Z,0.00
2019-01-08T02:59:58.809Z,0.00
2019-01-08T03:00:58.726Z,0.00
2019-01-08T03:01:58.637Z,0.00
2019-01-08T03:02:58.548Z,0.00
2019-01-08T03:03:58.474Z,0.00
2019-01-08T03:04:58.385Z,0.00
2019-01-08T03:05:58.298Z,0.00
2019-01-08T03:06:58.210Z,0.00
2019-01-08T03:07:58.124Z,0.00
2019-01-08T03:08:58.038Z,0.00
2019-01-08T03:09:57.949Z,0.00
2019-01-08T03:10:57.877Z,0.00
2019-01-08T03:11:57.786Z,0.00
2019-01-08T03:12:57.700Z,0.00
2019-01-08T03:13:57.611Z,0.00
2019-01-08T03:14:57.524Z,0.00
2019-01-08T03:15:57.436Z,0.00
2019-01-08T03:16:57.362Z,0.00
2019-01-08T03:17:57.275Z,0.00
2019-01-08T03:18:57.187Z,0.00
2019-01-08T03:19:57.099Z,0.00
2019-01-08T03:20:57.363Z,0.00
2019-01-08T03:21:56.925Z,0.00
2019-01-08T03:22:56.838Z,0.00
2019-01-08T03:23:56.764Z,0.00
2019-01-08T03:24:56.676Z,0.00
2019-01-08T03:25:56.588Z,0.00
2019-01-08T03:26:56.501Z,0.00
2019-01-08T03:27:56.413Z,0.00
2019-01-08T03:28:56.330Z,0.00
2019-01-08T03:29:56.239Z,0.00
2019-01-08T03:30:56.164Z,0.00
2019-01-08T03:31:56.079Z,0.00
2019-01-08T03:32:55.989Z,0.00
2019-01-08T03:33:55.902Z,0.00
2019-01-08T03:34:55.813Z,0.00
2019-01-08T03:35:55.728Z,0.00
2019-01-08T03:36:55.651Z,0.00
2019-01-08T03:37:55.567Z,0.00
2019-01-08T03:38:55.477Z,0.00
2019-01-08T03:39:55.389Z,0.00
2019-01-08T03:40:55.303Z,0.00
2019-01-08T03:41:55.215Z,0.00
2019-01-08T03:42:55.141Z,0.00
2019-01-08T03:43:55.052Z,0.00
2019-01-08T03:44:54.965Z,0.00
2019-01-08T03:45:54.878Z,0.00
2019-01-08T03:46:54.789Z,0.00
2019-01-08T03:47:54.705Z,0.00
2019-01-08T03:48:54.628Z,0.00
2019-01-08T03:49:54.540Z,0.00
2019-01-08T03:50:54.455Z,0.00
2019-01-08T03:51:54.365Z,0.00
2019-01-08T03:52:54.285Z,0.00
2019-01-08T03:53:54.190Z,0.00
2019-01-08T03:54:54.116Z,0.00
2019-01-08T03:55:54.038Z,0.00
2019-01-08T03:56:53.943Z,0.00
2019-01-08T03:57:53.854Z,0.00
2019-01-08T03:58:53.768Z,0.00
2019-01-08T03:59:53.681Z,0.00
2019-01-08T04:00:53.892Z,0.00
2019-01-08T04:01:53.516Z,0.00
2019-01-08T04:02:53.430Z,0.00
2019-01-08T04:03:53.343Z,0.00
2019-01-08T04:04:53.255Z,0.00
2019-01-08T04:05:53.167Z,0.00
2019-01-08T04:06:53.081Z,0.00
2019-01-08T04:07:53.005Z,0.00
2019-01-08T04:08:52.919Z,0.00
2019-01-08T04:09:52.830Z,0.00
2019-01-08T04:10:52.741Z,0.00
2019-01-08T04:11:52.655Z,0.00
2019-01-08T04:12:52.567Z,0.00
2019-01-08T04:13:52.480Z,0.00
2019-01-08T04:14:52.406Z,0.00
2019-01-08T04:15:52.318Z,0.00
2019-01-08T04:16:52.236Z,0.00
2019-01-08T04:17:52.144Z,0.00
2019-01-08T04:18:52.055Z,0.00
2019-01-08T04:19:51.970Z,0.00
2019-01-08T04:20:52.132Z,0.00
2019-01-08T04:21:51.806Z,0.00
2019-01-08T04:22:51.718Z,0.00
2019-01-08T04:23:51.632Z,0.00
2019-01-08T04:24:51.543Z,0.00
2019-01-08T04:25:51.457Z,0.00
2019-01-08T04:26:51.375Z,0.00
2019-01-08T04:27:51.283Z,0.00
2019-01-08T04:28:51.208Z,0.00
2019-01-08T04:29:51.119Z,0.00
2019-01-08T04:30:51.037Z,0.00
2019-01-08T04:31:50.944Z,0.00
2019-01-08T04:32:50.859Z,0.00
2019-01-08T04:33:50.769Z,0.00
2019-01-08T04:34:50.683Z,0.00
2019-01-08T04:35:50.609Z,0.00
2019-01-08T04:36:50.520Z,0.00
2019-01-08T04:37:50.433Z,0.00
2019-01-08T04:38:50.345Z,0.00
2019-01-08T04:39:50.258Z,0.00
2019-01-08T04:40:50.169Z,0.00
2019-01-08T04:41:50.096Z,0.00
2019-01-08T04:42:50.008Z,0.00
2019-01-08T04:43:49.922Z,0.00
2019-01-08T04:44:49.834Z,0.00
2019-01-08T04:45:49.746Z,0.00
2019-01-08T04:46:49.659Z,0.00
2019-01-08T04:47:49.570Z,0.00
2019-01-08T04:48:49.484Z,0.00
2019-01-08T04:49:49.397Z,0.00
2019-01-08T04:50:49.333Z,0.00
2019-01-08T04:51:49.234Z,0.00
2019-01-08T04:52:49.146Z,0.00
2019-01-08T04:53:49.061Z,0.00
2019-01-08T04:54:48.971Z,0.00
2019-01-08T04:55:48.887Z,0.00
2019-01-08T04:56:48.798Z,0.00
2019-01-08T04:57:48.724Z,0.00
2019-01-08T04:58:48.636Z,0.00
2019-01-08T04:59:48.547Z,0.00
2019-01-08T05:00:48.461Z,0.00
2019-01-08T05:01:48.372Z,0.00
2019-01-08T05:02:48.287Z,0.00
2019-01-08T05:03:48.197Z,0.00
2019-01-08T05:04:48.123Z,0.00
2019-01-08T05:05:48.036Z,0.00
2019-01-08T05:06:47.948Z,0.00
2019-01-08T05:07:47.861Z,0.00
2019-01-08T05:08:47.789Z,0.00
2019-01-08T05:09:47.687Z,0.00
2019-01-08T05:10:47.598Z,0.00
2019-01-08T05:11:47.514Z,0.00
2019-01-08T05:12:48.149Z,0.00
2019-01-08T05:13:47.351Z,0.00
2019-01-08T05:14:47.262Z,0.00
2019-01-08T05:15:47.192Z,0.00
2019-01-08T05:16:47.098Z,0.00
2019-01-08T05:17:46.999Z,0.00
2019-01-08T05:18:46.917Z,0.00
2019-01-08T05:19:46.825Z,0.00
2019-01-08T05:20:46.799Z,0.00
2019-01-08T05:21:46.667Z,0.00
2019-01-08T05:22:47.174Z,0.00
2019-01-08T05:23:46.487Z,0.00
2019-01-08T05:24:46.399Z,0.00
2019-01-08T05:25:46.316Z,0.00
2019-01-08T05:26:46.225Z,0.00
2019-01-08T05:27:46.150Z,0.00
2019-01-08T05:28:46.063Z,0.00
2019-01-08T05:29:45.989Z,0.00
2019-01-08T05:30:45.888Z,0.00
2019-01-08T05:31:45.800Z,0.00
2019-01-08T05:32:45.718Z,0.00
2019-01-08T05:33:45.626Z,0.00
2019-01-08T05:34:45.544Z,0.00
2019-01-08T05:35:45.463Z,0.00
2019-01-08T05:36:45.388Z,0.00
2019-01-08T05:37:45.291Z,0.00
2019-01-08T05:38:45.204Z,0.00
2019-01-08T05:39:45.122Z,0.00
2019-01-08T05:40:45.027Z,0.00
2019-01-08T05:41:45.813Z,0.00
2019-01-08T05:42:44.853Z,0.00
2019-01-08T05:43:44.777Z,0.00
2019-01-08T05:44:44.692Z,0.00
2019-01-08T05:45:44.603Z,0.00
2019-01-08T05:46:44.515Z,0.00
2019-01-08T05:47:44.429Z,0.00
2019-01-08T05:48:44.341Z,0.00
2019-01-08T05:49:44.254Z,0.00
2019-01-08T05:50:44.178Z,0.00
2019-01-08T05:51:44.093Z,0.00
2019-01-08T05:52:44.004Z,0.00
2019-01-08T05:53:43.916Z,0.00
2019-01-08T05:54:43.829Z,0.00
2019-01-08T05:55:43.742Z,0.00
2019-01-08T05:56:43.654Z,0.00
2019-01-08T05:57:43.578Z,0.00
2019-01-08T05:58:43.494Z,0.00
2019-01-08T05:59:43.403Z,0.00
2019-01-08T06:00:43.317Z,0.00
2019-01-08T06:01:43.228Z,0.00
2019-01-08T06:02:43.142Z,0.00
2019-01-08T06:03:43.056Z,0.00
2019-01-08T06:04:42.982Z,0.00
2019-01-08T06:05:42.892Z,0.00
2019-01-08T06:06:42.804Z,0.00
2019-01-08T06:07:42.717Z,0.00
2019-01-08T06:08:42.632Z,0.00
2019-01-08T06:09:42.543Z,0.00
2019-01-08T06:10:42.456Z,0.00
2019-01-08T06:11:42.380Z,0.00
2019-01-08T06:12:42.293Z,0.00
2019-01-08T06:13:42.205Z,0.00
2019-01-08T06:14:42.147Z,0.00
2019-01-08T06:15:42.031Z,0.00
2019-01-08T06:16:41.944Z,0.00
2019-01-08T06:17:41.856Z,0.00
2019-01-08T06:18:41.794Z,0.00
2019-01-08T06:19:41.693Z,0.00
2019-01-08T06:20:41.856Z,0.00
2019-01-08T06:21:41.520Z,0.00
2019-01-08T06:22:41.431Z,0.00
2019-01-08T06:23:41.349Z,0.00
2019-01-08T06:24:41.270Z,0.00
2019-01-08T06:25:41.182Z,0.00
2019-01-08T06:26:41.094Z,0.00
2019-01-08T06:27:41.006Z,0.00
2019-01-08T06:28:40.921Z,0.00
2019-01-08T06:29:40.831Z,0.00
2019-01-08T06:30:40.745Z,0.00
2019-01-08T06:31:40.670Z,0.00
2019-01-08T06:32:40.583Z,0.00
2019-01-08T06:33:40.495Z,0.00
2019-01-08T06:34:40.410Z,0.00
2019-01-08T06:35:40.321Z,0.00
2019-01-08T06:36:40.232Z,0.00
2019-01-08T06:37:40.145Z,0.00
2019-01-08T06:38:40.071Z,0.00
2019-01-08T06:39:39.983Z,0.00
2019-01-08T06:40:40.197Z,0.00
2019-01-08T06:41:39.820Z,0.00
2019-01-08T06:42:39.721Z,0.00
2019-01-08T06:43:39.635Z,4.00
2019-01-08T06:44:39.547Z,4.00
2019-01-08T06:45:39.471Z,0.00
2019-01-08T06:46:43.232Z,4.00
2019-01-08T06:47:39.297Z,4.00
2019-01-08T06:48:39.209Z,4.00
2019-01-08T06:49:39.122Z,4.00
2019-01-08T06:50:39.038Z,8.00
2019-01-08T06:51:38.949Z,4.00
2019-01-08T06:52:38.917Z,8.00
2019-01-08T06:53:38.784Z,8.00
2019-01-08T06:54:38.701Z,8.00
2019-01-08T06:55:38.609Z,8.00
2019-01-08T06:56:38.522Z,8.00
2019-01-08T06:57:38.435Z,12.00
2019-01-08T06:58:38.348Z,12.00
2019-01-08T06:59:38.262Z,20.00
2019-01-08T07:00:38.186Z,24.00
2019-01-08T07:01:38.098Z,28.00
2019-01-08T07:02:38.467Z,36.00
2019-01-08T07:03:37.924Z,44.00
2019-01-08T07:04:37.836Z,48.00
2019-01-08T07:05:37.748Z,56.00
2019-01-08T07:06:37.662Z,60.00
2019-01-08T07:07:37.586Z,64.00
2019-01-08T07:08:37.499Z,76.00
2019-01-08T07:09:37.410Z,76.00
2019-01-08T07:10:37.325Z,76.00
2019-01-08T07:11:37.237Z,92.00
2019-01-08T07:12:37.152Z,96.00
2019-01-08T07:13:37.062Z,108.00
2019-01-08T07:14:36.986Z,124.00
2019-01-08T07:15:36.900Z,120.00
2019-01-08T07:16:36.812Z,120.00
2019-01-08T07:17:36.725Z,132.00
2019-01-08T07:18:36.636Z,160.00
2019-01-08T07:19:36.550Z,184.00
2019-01-08T07:20:36.465Z,184.00
2019-01-08T07:21:36.387Z,152.00
2019-01-08T07:22:36.301Z,112.00
2019-01-08T07:23:36.213Z,96.00
2019-01-08T07:24:36.128Z,84.00
2019-01-08T07:25:42.089Z,92.00
2019-01-08T07:26:35.951Z,92.00
2019-01-08T07:27:35.876Z,172.00
2019-01-08T07:28:35.788Z,156.00
2019-01-08T07:29:35.704Z,192.00
2019-01-08T07:30:41.387Z,212.00
2019-01-08T07:31:35.526Z,196.00
2019-01-08T07:32:35.438Z,204.00
2019-01-08T07:33:35.352Z,236.00
2019-01-08T07:34:35.276Z,268.00
2019-01-08T07:35:35.188Z,272.00
2019-01-08T07:36:35.106Z,288.00
2019-01-08T07:37:35.014Z,296.00
2019-01-08T07:38:34.928Z,328.00
2019-01-08T07:39:34.839Z,352.00
2019-01-08T07:40:34.752Z,356.00
2019-01-08T07:41:34.665Z,376.00
2019-01-08T07:42:34.589Z,396.00
2019-01-08T07:43:34.505Z,388.00
2019-01-08T07:44:34.415Z,412.00
2019-01-08T07:45:34.328Z,400.00
2019-01-08T07:46:34.244Z,416.00
2019-01-08T07:47:34.153Z,496.00
2019-01-08T07:48:34.065Z,584.00
2019-01-08T07:49:33.979Z,608.00
2019-01-08T07:50:33.904Z,600.00
2019-01-08T07:51:33.817Z,632.00
2019-01-08T07:52:33.729Z,716.00
2019-01-08T07:53:33.640Z,768.00
2019-01-08T07:54:33.553Z,932.00
2019-01-08T07:55:33.466Z,1116.00
2019-01-08T07:56:33.379Z,1124.00
2019-01-08T07:57:33.303Z,716.00
2019-01-08T07:58:33.216Z,720.00
2019-01-08T07:59:33.131Z,928.00
2019-01-08T08:00:33.054Z,888.00
2019-01-08T08:01:32.954Z,756.00
2019-01-08T08:02:32.866Z,712.00
2019-01-08T08:03:32.784Z,580.00
2019-01-08T08:04:32.705Z,476.00
2019-01-08T08:05:32.616Z,412.00
2019-01-08T08:06:32.531Z,460.00
2019-01-08T08:07:32.442Z,476.00
2019-01-08T08:08:32.359Z,420.00
2019-01-08T08:09:32.267Z,460.00
2019-01-08T08:10:32.182Z,488.00
2019-01-08T08:11:32.093Z,440.00
2019-01-08T08:12:32.017Z,472.00
2019-01-08T08:13:32.553Z,440.00
2019-01-08T08:14:31.843Z,420.00
2019-01-08T08:15:31.756Z,356.00
2019-01-08T08:16:31.720Z,428.00
2019-01-08T08:17:31.581Z,324.00
2019-01-08T08:18:31.494Z,492.00
2019-01-08T08:19:31.418Z,436.00
2019-01-08T08:20:31.332Z,468.00
2019-01-08T08:21:31.244Z,336.00
2019-01-08T08:22:31.158Z,376.00
2019-01-08T08:23:31.068Z,396.00
2019-01-08T08:24:30.982Z,400.00
2019-01-08T08:25:30.894Z,376.00
2019-01-08T08:26:30.807Z,428.00
2019-01-08T08:27:30.732Z,352.00
2019-01-08T08:28:30.644Z,412.00
2019-01-08T08:29:30.559Z,452.00
2019-01-08T08:30:30.485Z,424.00
2019-01-08T08:31:30.383Z,420.00
2019-01-08T08:32:30.295Z,420.00
2019-01-08T08:33:30.207Z,580.00
2019-01-08T08:34:30.124Z,656.00
2019-01-08T08:35:30.098Z,760.00
2019-01-08T08:36:29.961Z,852.00
2019-01-08T08:37:29.883Z,864.00
2019-01-08T08:38:29.784Z,1176.00
2019-01-08T08:39:29.695Z,1372.00
2019-01-08T08:40:29.609Z,1376.00
2019-01-08T08:41:29.520Z,1744.00
2019-01-08T08:42:29.445Z,1944.00
2019-01-08T08:43:29.359Z,2112.00
2019-01-08T08:44:29.284Z,2512.00
2019-01-08T08:45:29.184Z,2516.00
2019-01-08T08:46:29.096Z,2824.00
2019-01-08T08:47:29.010Z,2932.00
2019-01-08T08:48:28.920Z,3428.00
2019-01-08T08:49:28.846Z,3448.00
2019-01-08T08:50:28.747Z,2892.00
2019-01-08T08:51:28.674Z,3140.00
2019-01-08T08:52:28.588Z,2512.00
2019-01-08T08:53:28.497Z,2284.00
2019-01-08T08:54:28.411Z,1524.00
2019-01-08T08:55:28.321Z,1488.00
2019-01-08T08:56:28.235Z,1380.00
2019-01-08T08:57:28.146Z,1148.00
2019-01-08T08:58:28.074Z,1196.00
2019-01-08T08:59:27.986Z,1324.00
2019-01-08T09:00:27.896Z,1460.00
2019-01-08T09:01:27.810Z,1140.00
2019-01-08T09:02:27.723Z,1012.00
2019-01-08T09:03:27.635Z,932.00
2019-01-08T09:04:27.635Z,824.00
2019-01-08T09:05:27.464Z,824.00
2019-01-08T09:06:27.386Z,960.00
2019-01-08T09:07:27.299Z,1068.00
2019-01-08T09:08:27.213Z,1320.00
2019-01-08T09:09:27.124Z,1516.00
2019-01-08T09:10:27.036Z,1936.00
2019-01-08T09:11:26.948Z,2868.00
2019-01-08T09:12:26.863Z,3100.00
2019-01-08T09:13:26.787Z,3456.00
2019-01-08T09:14:26.699Z,4060.00
2019-01-08T09:15:26.612Z,3972.00
2019-01-08T09:16:26.525Z,3936.00
2019-01-08T09:17:26.437Z,3340.00
2019-01-08T09:18:26.349Z,2764.00
2019-01-08T09:19:26.264Z,2320.00
2019-01-08T09:20:26.188Z,1784.00
2019-01-08T09:21:26.100Z,1564.00
2019-01-08T09:22:26.017Z,1460.00
2019-01-08T09:23:25.937Z,1148.00
2019-01-08T09:24:25.838Z,1012.00
2019-01-08T09:25:25.750Z,832.00
2019-01-08T09:26:25.666Z,680.00
2019-01-08T09:27:25.592Z,572.00
2019-01-08T09:28:25.500Z,504.00
2019-01-08T09:29:25.415Z,548.00
2019-01-08T09:30:25.326Z,532.00
2019-01-08T09:31:25.240Z,616.00
2019-01-08T09:32:25.153Z,628.00
2019-01-08T09:33:25.066Z,800.00
2019-01-08T09:34:24.977Z,876.00
2019-01-08T09:35:24.914Z,1128.00
2019-01-08T09:36:24.814Z,1308.00
2019-01-08T09:37:24.726Z,1284.00
2019-01-08T09:38:24.640Z,1196.00
2019-01-08T09:39:24.568Z,912.00
2019-01-08T09:40:24.465Z,668.00
2019-01-08T09:41:24.378Z,740.00
2019-01-08T09:42:24.302Z,816.00
2019-01-08T09:43:24.214Z,856.00
2019-01-08T09:44:24.127Z,832.00
2019-01-08T09:45:24.041Z,1124.00
2019-01-08T09:46:23.953Z,980.00
2019-01-08T09:47:23.865Z,856.00
2019-01-08T09:48:23.777Z,872.00
2019-01-08T09:49:23.693Z,968.00
2019-01-08T09:50:23.615Z,1044.00
2019-01-08T09:51:23.531Z,1108.00
2019-01-08T09:52:23.444Z,1036.00
2019-01-08T09:53:23.357Z,1356.00
2019-01-08T09:54:23.266Z,1228.00
2019-01-08T09:55:23.178Z,956.00
2019-01-08T09:56:23.092Z,1044.00
2019-01-08T09:57:23.016Z,1080.00
2019-01-08T09:58:22.928Z,1128.00
2019-01-08T09:59:22.850Z,800.00
2019-01-08T10:00:22.754Z,888.00
2019-01-08T10:01:24.118Z,736.00
2019-01-08T10:02:22.579Z,824.00
2019-01-08T10:03:22.493Z,1036.00
2019-01-08T10:04:22.405Z,1112.00
2019-01-08T10:05:22.317Z,916.00
2019-01-08T10:06:22.243Z,1000.00
2019-01-08T10:07:22.155Z,1136.00
2019-01-08T10:08:22.070Z,1188.00
2019-01-08T10:09:21.979Z,1280.00
2019-01-08T10:10:21.893Z,1052.00
2019-01-08T10:11:21.805Z,1224.00
2019-01-08T10:12:21.719Z,1724.00
2019-01-08T10:13:21.633Z,1528.00
2019-01-08T10:14:21.557Z,1428.00
2019-01-08T10:15:21.472Z,1472.00
2019-01-08T10:16:21.381Z,1628.00
2019-01-08T10:17:21.293Z,2464.00
2019-01-08T10:18:21.206Z,1964.00
2019-01-08T10:19:21.120Z,1792.00
2019-01-08T10:20:21.034Z,1812.00
2019-01-08T10:21:20.945Z,1808.00
2019-01-08T10:22:20.869Z,1716.00
2019-01-08T10:23:20.781Z,2124.00
2019-01-08T10:24:20.696Z,1832.00
2019-01-08T10:25:20.607Z,1720.00
2019-01-08T10:26:20.519Z,1984.00
2019-01-08T10:27:20.444Z,1664.00
2019-01-08T10:28:20.348Z,1672.00
2019-01-08T10:29:20.258Z,1548.00
2019-01-08T10:30:20.195Z,1576.00
2019-01-08T10:31:20.095Z,1992.00
2019-01-08T10:32:20.009Z,2296.00
2019-01-08T10:33:19.930Z,1808.00
2019-01-08T10:34:19.833Z,1712.00
2019-01-08T10:35:19.748Z,1780.00
2019-01-08T10:36:19.661Z,2212.00
2019-01-08T10:37:19.584Z,2328.00
2019-01-08T10:38:19.496Z,2160.00
2019-01-08T10:39:19.408Z,2024.00
2019-01-08T10:40:19.325Z,1676.00
2019-01-08T10:41:19.233Z,2132.00
2019-01-08T10:42:19.148Z,2092.00
2019-01-08T10:43:19.059Z,2536.00
2019-01-08T10:44:18.984Z,2540.00
2019-01-08T10:45:18.962Z,2724.00
2019-01-08T10:46:18.821Z,2292.00
2019-01-08T10:47:18.722Z,2280.00
2019-01-08T10:48:18.634Z,2360.00
2019-01-08T10:49:18.548Z,2564.00
2019-01-08T10:50:18.459Z,2944.00
2019-01-08T10:51:18.384Z,2808.00
2019-01-08T10:52:18.298Z,2828.00
2019-01-08T10:53:18.210Z,2676.00
2019-01-08T10:54:18.124Z,3532.00
2019-01-08T10:55:18.034Z,2976.00
2019-01-08T10:56:17.948Z,2948.00
2019-01-08T10:57:17.860Z,2644.00
2019-01-08T10:58:17.785Z,2352.00
2019-01-08T10:59:17.709Z,2448.00
2019-01-08T11:00:17.610Z,2240.00
2019-01-08T11:01:17.526Z,1984.00
2019-01-08T11:02:17.436Z,1756.00
2019-01-08T11:03:17.349Z,1924.00
2019-01-08T11:04:17.273Z,2216.00
2019-01-08T11:05:17.185Z,1824.00
2019-01-08T11:06:17.100Z,1560.00
2019-01-08T11:07:17.010Z,1528.00
2019-01-08T11:08:16.925Z,1392.00
2019-01-08T11:09:16.835Z,1344.00
2019-01-08T11:10:16.751Z,1456.00
2019-01-08T11:11:16.663Z,1252.00
2019-01-08T11:12:16.585Z,1352.00
2019-01-08T11:13:16.499Z,1676.00
2019-01-08T11:14:16.426Z,2080.00
2019-01-08T11:15:16.325Z,2648.00
2019-01-08T11:16:16.237Z,2700.00
2019-01-08T11:17:16.151Z,2044.00
2019-01-08T11:18:16.062Z,2216.00
2019-01-08T11:19:15.987Z,2176.00
2019-01-08T11:20:15.902Z,1904.00
2019-01-08T11:21:15.813Z,1936.00
2019-01-08T11:22:15.726Z,1952.00
2019-01-08T11:23:15.637Z,1220.00
2019-01-08T11:24:15.551Z,1140.00
2019-01-08T11:25:15.478Z,1584.00
2019-01-08T11:26:15.472Z,1552.00
2019-01-08T11:27:15.308Z,1156.00
2019-01-08T11:28:15.215Z,1400.00
2019-01-08T11:29:15.126Z,1504.00
2019-01-08T11:30:15.039Z,1256.00
2019-01-08T11:31:14.951Z,1508.00
2019-01-08T11:32:14.865Z,1420.00
2019-01-08T11:33:14.876Z,1212.00
2019-01-08T11:34:14.703Z,1416.00
2019-01-08T11:35:14.614Z,1624.00
2019-01-08T11:36:14.527Z,2248.00
2019-01-08T11:37:14.441Z,2384.00
2019-01-08T11:38:14.352Z,2472.00
2019-01-08T11:39:14.266Z,2652.00
2019-01-08T11:40:14.192Z,2592.00
2019-01-08T11:41:14.104Z,2080.00
2019-01-08T11:42:14.017Z,2128.00
2019-01-08T11:43:13.927Z,2276.00
2019-01-08T11:44:13.839Z,1892.00
2019-01-08T11:45:13.764Z,2144.00
2019-01-08T11:46:13.666Z,2144.00
2019-01-08T11:47:13.605Z,1960.00
2019-01-08T11:48:13.503Z,2080.00
2019-01-08T11:49:13.414Z,2128.00
2019-01-08T11:50:13.329Z,2168.00
2019-01-08T11:51:13.244Z,2108.00
2019-01-08T11:52:13.153Z,2328.00
2019-01-08T11:53:13.068Z,1756.00
2019-01-08T11:54:12.992Z,1604.00
2019-01-08T11:55:12.904Z,1704.00
2019-01-08T11:56:12.816Z,1980.00
2019-01-08T11:57:12.729Z,1700.00
2019-01-08T11:58:12.642Z,1708.00
2019-01-08T11:59:12.567Z,1448.00
2019-01-08T12:00:12.768Z,1316.00
2019-01-08T12:01:12.392Z,1264.00
2019-01-08T12:02:12.305Z,1388.00
2019-01-08T12:03:12.216Z,1300.00
2019-01-08T12:04:12.130Z,1268.00
2019-01-08T12:05:12.054Z,1356.00
2019-01-08T12:06:11.955Z,1360.00
2019-01-08T12:07:11.905Z,1500.00
2019-01-08T12:08:11.792Z,1524.00
2019-01-08T12:09:11.705Z,2416.00
2019-01-08T12:10:11.617Z,3128.00
2019-01-08T12:11:11.530Z,3232.00
2019-01-08T12:12:11.443Z,3180.00
2019-01-08T12:13:11.432Z,3236.00
2019-01-08T12:14:11.281Z,3548.00
2019-01-08T12:15:11.193Z,2988.00
2019-01-08T12:16:11.106Z,2908.00
2019-01-08T12:17:11.020Z,2916.00
2019-01-08T12:18:10.931Z,3372.00
2019-01-08T12:19:10.844Z,3384.00
2019-01-08T12:20:10.768Z,2956.00
2019-01-08T12:21:10.684Z,3328.00
2019-01-08T12:22:10.593Z,2776.00
2019-01-08T12:23:10.507Z,3796.00
2019-01-08T12:24:10.419Z,4312.00
2019-01-08T12:25:10.332Z,3328.00
2019-01-08T12:26:10.258Z,3332.00
2019-01-08T12:27:10.169Z,3156.00
2019-01-08T12:28:10.082Z,3060.00
2019-01-08T12:29:09.995Z,3612.00
2019-01-08T12:30:09.907Z,2796.00
2019-01-08T12:31:09.820Z,2252.00
2019-01-08T12:32:09.758Z,2224.00
2019-01-08T12:33:09.657Z,2044.00
2019-01-08T12:34:09.571Z,2128.00
2019-01-08T12:35:09.485Z,2524.00
2019-01-08T12:36:09.396Z,1872.00
2019-01-08T12:37:09.309Z,1844.00
2019-01-08T12:38:09.233Z,1444.00
2019-01-08T12:39:09.159Z,1792.00
2019-01-08T12:40:09.058Z,1676.00
2019-01-08T12:41:08.971Z,1768.00
2019-01-08T12:42:08.893Z,1500.00
2019-01-08T12:43:08.797Z,1444.00
2019-01-08T12:44:08.721Z,1328.00
2019-01-08T12:45:08.633Z,1228.00
2019-01-08T12:46:08.561Z,1096.00
2019-01-08T12:47:08.460Z,1136.00